Time;durP1;ratioP1;P1;durP2;ratioP2;P2;SDS_P1;SDS_P2;PMS_P1;PMS_P2;Temp;Humidity;BMP_temperature;BMP_pressure;BME280_temperature;BME280_humidity;BME280_pressure;Samples;Min_cycle;Max_cycle;Signal;HPM_P1;HPM_P2
2021/08/27 00:00:41;;;;;;;8.20;3.60;;;;;;;8.65;100.00;92937.81;2084347;28;20029;-88
2021/08/27 00:01:42;;;;;;;4.85;3.45;;;;;;;8.68;100.00;92942.34;2096164;28;20020;-88
2021/08/27 00:02:42;;;;;;;7.80;3.28;;;;;;;8.68;100.00;92937.75;2087891;28;20025;-85
2021/08/27 00:03:43;;;;;;;4.03;3.08;;;;;;;8.66;100.00;92931.34;2087737;28;20032;-84
2021/08/27 00:04:44;;;;;;;6.90;3.22;;;;;;;8.69;100.00;92935.84;2095150;28;20031;-84
2021/08/27 00:05:45;;;;;;;3.33;2.90;;;;;;;8.68;100.00;92929.75;2093672;28;20115;-85
2021/08/27 00:06:46;;;;;;;8.05;2.90;;;;;;;8.60;100.00;92939.03;2093122;28;20048;-87
2021/08/27 00:07:47;;;;;;;6.35;2.88;;;;;;;8.67;100.00;92938.91;2100961;28;20464;-87
2021/08/27 00:08:48;;;;;;;7.30;3.50;;;;;;;8.63;100.00;92935.56;2095128;28;20056;-87
2021/08/27 00:09:49;;;;;;;4.30;3.00;;;;;;;8.67;100.00;92935.50;2100917;28;20074;-86
2021/08/27 00:10:50;;;;;;;6.00;3.08;;;;;;;8.71;100.00;92928.97;2104882;28;20366;-89
2021/08/27 00:11:52;;;;;;;6.70;3.13;;;;;;;8.58;100.00;92942.13;2088910;28;20025;-86
2021/08/27 00:12:53;;;;;;;10.93;3.53;;;;;;;8.58;100.00;92936.03;2097070;28;20752;-87
2021/08/27 00:13:54;;;;;;;4.25;3.38;;;;;;;8.64;100.00;92931.72;2096923;28;20029;-86
2021/08/27 00:14:55;;;;;;;5.13;4.20;;;;;;;8.66;100.00;92928.69;2087545;28;20025;-88
2021/08/27 00:15:56;;;;;;;5.03;3.13;;;;;;;8.68;100.00;92934.34;2096237;28;20024;-89
2021/08/27 00:16:57;;;;;;;6.55;3.25;;;;;;;8.69;100.00;92933.97;2097069;28;20463;-88
2021/08/27 00:17:58;;;;;;;5.78;2.97;;;;;;;8.73;100.00;92933.88;2096970;28;20021;-86
2021/08/27 00:18:59;;;;;;;7.25;3.22;;;;;;;8.74;100.00;92935.41;2104962;28;20109;-89
2021/08/27 00:20:00;;;;;;;4.85;3.17;;;;;;;8.80;100.00;92936.41;2096738;28;20036;-88
2021/08/27 00:21:01;;;;;;;4.35;3.30;;;;;;;8.76;100.00;92928.47;2088118;28;20470;-91
2021/08/27 00:22:02;;;;;;;5.70;3.20;;;;;;;8.79;100.00;92932.25;2088760;28;20029;-88
2021/08/27 00:23:04;;;;;;;6.00;3.80;;;;;;;8.78;100.00;92925.41;2088640;28;20024;-90
2021/08/27 00:24:06;;;;;;;7.28;3.75;;;;;;;8.86;100.00;92934.78;2092449;28;20035;-88
2021/08/27 00:25:08;;;;;;;8.65;3.40;;;;;;;8.88;100.00;92931.72;2103651;28;20078;-89
2021/08/27 00:26:09;;;;;;;4.07;3.33;;;;;;;8.86;100.00;92929.44;2099700;28;20449;-87
2021/08/27 00:27:10;;;;;;;6.53;3.60;;;;;;;8.90;100.00;92934.72;2100534;28;20035;-85
2021/08/27 00:28:11;;;;;;;7.38;3.78;;;;;;;8.86;100.00;92931.34;2112301;28;20092;-87
2021/08/27 00:29:12;;;;;;;5.32;3.30;;;;;;;8.86;100.00;92928.69;2095258;28;20027;-85
2021/08/27 00:30:13;;;;;;;5.10;3.53;;;;;;;8.87;100.00;92938.97;2086976;28;20529;-88
2021/08/27 00:31:14;;;;;;;5.90;3.50;;;;;;;8.86;100.00;92926.78;2096246;28;20110;-88
2021/08/27 00:32:15;;;;;;;5.85;3.60;;;;;;;8.86;100.00;92931.34;2095889;28;20113;-87
2021/08/27 00:33:17;;;;;;;5.05;3.25;;;;;;;8.87;100.00;92935.53;2097151;28;20554;-86
2021/08/27 00:34:17;;;;;;;6.03;3.78;;;;;;;8.85;100.00;92935.19;2097312;28;20035;-88
2021/08/27 00:35:18;;;;;;;4.93;3.38;;;;;;;8.83;100.00;92939.03;2084686;28;20025;-87
2021/08/27 00:36:19;;;;;;;4.78;3.30;;;;;;;8.85;100.00;92938.59;2093047;28;20494;-88
2021/08/27 00:37:20;;;;;;;6.40;3.65;;;;;;;8.83;100.00;92935.59;2096231;28;20024;-89
2021/08/27 00:38:21;;;;;;;6.13;3.30;;;;;;;8.78;100.00;92931.50;2109400;28;20515;-86
2021/08/27 00:39:22;;;;;;;6.65;3.53;;;;;;;8.81;100.00;92925.34;2087087;28;20025;-85
2021/08/27 00:40:23;;;;;;;6.10;3.60;;;;;;;8.80;100.00;92931.09;2084322;28;20033;-87
2021/08/27 00:41:24;;;;;;;5.85;3.55;;;;;;;8.92;100.00;92932.41;2092112;28;20068;-86
2021/08/27 00:42:25;;;;;;;3.67;3.13;;;;;;;8.90;100.00;92932.06;2092726;28;20544;-87
2021/08/27 00:43:26;;;;;;;4.45;3.50;;;;;;;8.88;100.00;92927.13;2096340;28;20212;-88
2021/08/27 00:44:27;;;;;;;4.25;3.15;;;;;;;8.86;100.00;92926.03;2100056;28;20050;-90
2021/08/27 00:45:28;;;;;;;4.68;3.30;;;;;;;8.90;100.00;92924.81;2088245;28;20029;-87
2021/08/27 00:46:28;;;;;;;4.03;3.35;;;;;;;8.89;100.00;92927.88;2096640;28;20020;-91
2021/08/27 00:47:29;;;;;;;3.88;3.00;;;;;;;8.81;100.00;92927.25;2095314;28;20024;-88
2021/08/27 00:48:31;;;;;;;5.25;3.47;;;;;;;8.88;100.00;92927.13;2096037;28;20498;-86
2021/08/27 00:49:32;;;;;;;9.30;4.03;;;;;;;8.90;100.00;92924.81;2088615;28;20021;-87
2021/08/27 00:50:33;;;;;;;8.13;4.22;;;;;;;8.97;100.00;92926.59;2088613;28;20027;-85
2021/08/27 00:51:34;;;;;;;6.32;3.60;;;;;;;8.93;100.00;92923.25;2088789;28;20029;-85
2021/08/27 00:52:37;;;;;;;4.82;3.42;;;;;;;8.95;100.00;92924.31;2096617;28;20051;-85
2021/08/27 00:53:38;;;;;;;5.25;3.47;;;;;;;8.93;100.00;92931.25;2096480;28;20067;-87
2021/08/27 00:54:45;;;;;;;7.20;3.20;;;;;;;8.93;100.00;92926.66;2096401;28;20103;-88
2021/08/27 00:55:46;;;;;;;5.13;3.20;;;;;;;8.98;100.00;92926.19;2102356;28;20078;-86
2021/08/27 00:56:51;;;;;;;7.80;3.53;;;;;;;8.97;100.00;92924.69;2100901;28;20754;-86
2021/08/27 00:57:52;;;;;;;5.45;3.22;;;;;;;9.01;100.00;92924.63;2097151;28;20429;-87
2021/08/27 00:58:53;;;;;;;4.53;2.50;;;;;;;9.11;100.00;92920.25;2096571;28;20413;-86
2021/08/27 00:59:54;;;;;;;5.00;3.17;;;;;;;9.09;100.00;92920.66;2096326;28;20031;-88
2021/08/27 01:00:55;;;;;;;8.80;4.18;;;;;;;9.13;100.00;92924.00;2087971;28;20408;-90
2021/08/27 01:01:55;;;;;;;5.97;3.75;;;;;;;9.18;100.00;92920.84;2094136;28;20024;-86
2021/08/27 01:02:57;;;;;;;7.15;3.30;;;;;;;9.19;100.00;92922.34;2088259;28;20031;-87
2021/08/27 01:03:59;;;;;;;5.32;3.20;;;;;;;9.19;100.00;92916.28;2096711;28;20032;-86
2021/08/27 01:05:00;;;;;;;4.88;3.67;;;;;;;9.12;100.00;92919.81;2101617;28;20016;-85
2021/08/27 01:06:16;;;;;;;6.93;3.40;;;;;;;9.20;100.00;92915.84;2095182;28;20115;-86
2021/08/27 01:07:22;;;;;;;6.10;3.28;;;;;;;9.21;100.00;92916.59;2091661;28;20048;-87
2021/08/27 01:08:34;;;;;;;5.15;3.28;;;;;;;9.22;100.00;92921.53;2087115;28;20024;-88
2021/08/27 01:09:47;;;;;;;6.72;3.67;;;;;;;9.26;100.00;92914.22;2092858;28;20037;-84
2021/08/27 01:11:00;;;;;;;8.95;3.60;;;;;;;9.25;100.00;92909.28;2092995;28;20168;-86
2021/08/27 01:12:10;;;;;;;9.57;3.90;;;;;;;9.26;100.00;92910.78;2090895;28;20505;-89
2021/08/27 01:13:26;;;;;;;5.65;3.50;;;;;;;9.28;100.00;92921.81;2098572;28;20025;-86
2021/08/27 01:14:53;;;;;;;4.85;3.58;;;;;;;9.33;100.00;92922.06;2107056;28;20122;-88
2021/08/27 01:16:11;;;;;;;5.50;3.50;;;;;;;9.33;100.00;92913.31;2094758;28;20039;-88
2021/08/27 01:17:16;;;;;;;7.65;4.38;;;;;;;9.38;100.00;92915.50;2098703;28;20029;-86
2021/08/27 01:18:42;;;;;;;6.40;4.78;;;;;;;9.37;100.00;92914.00;2100202;28;20024;-85
2021/08/27 01:19:46;;;;;;;8.32;5.03;;;;;;;9.45;100.00;92918.03;2080661;28;20041;-87
2021/08/27 01:21:05;;;;;;;7.07;5.28;;;;;;;9.52;100.00;92914.44;2111138;28;20031;-88
2021/08/27 01:22:44;;;;;;;7.93;5.63;;;;;;;9.54;100.00;92906.78;2099071;28;20034;-87
2021/08/27 01:23:57;;;;;;;8.40;5.55;;;;;;;9.56;100.00;92915.88;2069363;28;20117;-88
2021/08/27 01:24:59;;;;;;;9.25;4.75;;;;;;;9.54;100.00;92915.53;2067451;28;20085;-84
2021/08/27 01:26:03;;;;;;;7.80;5.03;;;;;;;9.57;100.00;92916.66;2080235;28;20047;-87
2021/08/27 01:27:11;;;;;;;7.75;4.85;;;;;;;9.58;100.00;92912.81;2096460;28;20491;-84
2021/08/27 01:28:14;;;;;;;11.80;5.68;;;;;;;9.56;100.00;92920.47;2098028;28;20029;-87
2021/08/27 01:29:24;;;;;;;8.40;4.88;;;;;;;9.60;100.00;92918.47;2111333;28;20038;-88
2021/08/27 01:30:38;;;;;;;7.45;4.85;;;;;;;9.64;100.00;92910.41;2104410;28;20052;-88
2021/08/27 01:32:03;;;;;;;9.90;5.07;;;;;;;9.61;100.00;92916.53;2099331;28;20033;-90
2021/08/27 01:33:14;;;;;;;7.43;4.63;;;;;;;9.65;100.00;92912.63;2103034;28;20027;-87
2021/08/27 01:34:32;;;;;;;6.00;5.00;;;;;;;9.64;100.00;92913.81;2103733;28;20035;-88
2021/08/27 01:35:34;;;;;;;7.68;4.80;;;;;;;9.73;100.00;92913.25;2107333;28;20119;-87
2021/08/27 01:36:38;;;;;;;9.82;4.90;;;;;;;9.75;100.00;92910.94;2102881;28;20116;-87
2021/08/27 01:37:42;;;;;;;10.15;5.70;;;;;;;9.81;100.00;92904.66;2088581;28;20128;-87
2021/08/27 01:38:46;;;;;;;8.45;5.10;;;;;;;9.81;100.00;92904.66;2087075;28;20020;-89
2021/08/27 01:39:53;;;;;;;10.40;6.18;;;;;;;9.80;100.00;92913.84;2098874;28;20465;-85
2021/08/27 01:40:56;;;;;;;15.00;6.75;;;;;;;9.80;100.00;92911.19;2105775;28;20099;-85
2021/08/27 01:42:01;;;;;;;14.32;6.43;;;;;;;9.86;100.00;92910.69;2105174;28;20560;-88
2021/08/27 01:43:05;;;;;;;10.43;5.95;;;;;;;9.89;100.00;92902.59;2093772;28;20028;-85
2021/08/27 01:44:08;;;;;;;8.52;5.90;;;;;;;9.86;100.00;92905.34;2104209;28;20381;-87
2021/08/27 01:45:10;;;;;;;12.73;6.50;;;;;;;9.88;100.00;92905.66;2113128;28;20383;-87
2021/08/27 01:46:13;;;;;;;7.60;5.82;;;;;;;9.84;100.00;92914.53;2098290;28;20024;-89
2021/08/27 01:47:17;;;;;;;8.82;5.72;;;;;;;9.78;100.00;92918.84;2087529;28;20053;-84
2021/08/27 01:48:18;;;;;;;7.40;6.13;;;;;;;9.79;100.00;92906.25;2097423;28;20032;-86
2021/08/27 01:49:19;;;;;;;10.55;7.43;;;;;;;9.86;100.00;92908.00;2104608;28;20040;-89
2021/08/27 01:50:21;;;;;;;9.45;6.70;;;;;;;9.88;100.00;92908.34;2095671;28;20020;-88
2021/08/27 01:51:23;;;;;;;17.40;7.03;;;;;;;9.85;100.00;92909.94;2086102;28;20033;-87
2021/08/27 01:52:26;;;;;;;9.90;6.55;;;;;;;9.83;100.00;92909.56;2096050;28;20021;-88
2021/08/27 01:53:28;;;;;;;9.25;6.15;;;;;;;9.82;100.00;92910.75;2096738;28;20048;-88
2021/08/27 01:54:30;;;;;;;8.48;6.70;;;;;;;9.86;100.00;92911.44;2088622;28;20031;-88
2021/08/27 01:55:36;;;;;;;9.02;6.47;;;;;;;9.88;100.00;92919.00;2087292;28;20028;-89
2021/08/27 01:56:39;;;;;;;11.73;7.55;;;;;;;9.93;100.00;92915.88;2104380;28;20404;-88
2021/08/27 01:57:42;;;;;;;11.40;6.63;;;;;;;9.91;100.00;92916.25;2098131;28;20028;-85
2021/08/27 01:58:43;;;;;;;10.35;7.18;;;;;;;9.94;100.00;92907.44;2090801;28;20021;-89
2021/08/27 01:59:45;;;;;;;12.93;7.03;;;;;;;9.96;100.00;92915.00;2088255;28;20033;-87
2021/08/27 02:00:47;;;;;;;10.77;6.50;;;;;;;9.96;100.00;92904.34;2096718;28;20461;-88
2021/08/27 02:01:48;;;;;;;10.25;6.63;;;;;;;9.97;100.00;92911.19;2096500;28;20452;-87
2021/08/27 02:02:52;;;;;;;9.20;7.30;;;;;;;9.94;100.00;92906.69;2096013;28;20032;-85
2021/08/27 02:03:54;;;;;;;10.98;6.55;;;;;;;9.94;100.00;92906.69;2096540;28;20366;-87
2021/08/27 02:04:59;;;;;;;12.88;7.95;;;;;;;9.92;100.00;92909.78;2088450;28;20045;-90
2021/08/27 02:07:05;;;;;;;;;;;;;;;9.88;100.00;92909.09;2143902;27;20165;-81
2021/08/27 02:08:06;;;;;;;11.45;6.40;;;;;;;9.86;100.00;92914.09;2128468;27;20309;-84
2021/08/27 02:09:08;;;;;;;12.40;7.38;;;;;;;9.81;100.00;92906.59;2119587;28;20480;-84
2021/08/27 02:10:09;;;;;;;14.35;7.30;;;;;;;9.80;100.00;92907.75;2119010;27;20103;-84
2021/08/27 02:11:11;;;;;;;10.27;6.68;;;;;;;9.77;100.00;92913.91;2121750;27;20455;-85
2021/08/27 02:12:13;;;;;;;15.43;8.02;;;;;;;9.82;100.00;92908.09;2120055;28;20019;-84
2021/08/27 02:13:15;;;;;;;11.68;7.22;;;;;;;9.78;100.00;92910.81;2118046;28;20149;-85
2021/08/27 02:14:16;;;;;;;15.52;7.47;;;;;;;9.74;100.00;92915.50;2110555;28;20023;-84
2021/08/27 02:15:20;;;;;;;10.60;6.72;;;;;;;9.75;100.00;92918.94;2105279;27;20021;-85
2021/08/27 02:16:21;;;;;;;11.82;7.15;;;;;;;9.77;100.00;92908.59;2122317;27;20471;-84
2021/08/27 02:17:26;;;;;;;8.27;7.20;;;;;;;9.75;100.00;92906.34;2130323;27;20019;-84
2021/08/27 02:18:28;;;;;;;8.35;6.50;;;;;;;9.76;100.00;92907.84;2130112;27;20348;-85
2021/08/27 02:19:29;;;;;;;12.75;6.60;;;;;;;9.74;100.00;92912.81;2110875;28;20036;-84
2021/08/27 02:20:31;;;;;;;8.13;6.57;;;;;;;9.79;100.00;92903.59;2111041;28;20471;-84
2021/08/27 02:21:40;;;;;;;7.72;6.40;;;;;;;9.78;100.00;92907.41;2117412;28;20023;-84
2021/08/27 02:22:43;;;;;;;9.27;6.95;;;;;;;9.72;100.00;92914.41;2128695;27;20130;-84
2021/08/27 02:23:46;;;;;;;10.27;6.15;;;;;;;9.71;100.00;92912.91;2119538;28;20026;-84
2021/08/27 02:25:14;;;;;;;9.30;6.65;;;;;;;9.70;100.00;92911.41;2111972;27;20543;-84
2021/08/27 02:26:16;;;;;;;8.43;6.40;;;;;;;9.72;100.00;92906.41;2123276;27;20057;-84
2021/08/27 02:27:19;;;;;;;8.40;5.90;;;;;;;9.72;100.00;92909.06;2115870;27;20023;-85
2021/08/27 02:28:22;;;;;;;9.23;6.43;;;;;;;9.72;100.00;92911.75;2129393;27;20034;-86
2021/08/27 02:29:26;;;;;;;15.00;6.78;;;;;;;9.73;100.00;92915.91;2129635;27;20019;-84
2021/08/27 02:30:27;;;;;;;8.73;7.03;;;;;;;9.74;100.00;92920.06;2128223;27;20028;-84
2021/08/27 02:31:30;;;;;;;10.95;6.78;;;;;;;9.76;100.00;92915.09;2112981;28;20020;-84
2021/08/27 02:32:32;;;;;;;10.75;6.70;;;;;;;9.70;100.00;92908.72;2111123;28;20020;-85
2021/08/27 02:33:34;;;;;;;13.65;7.05;;;;;;;9.72;100.00;92923.16;2107026;28;20017;-85
2021/08/27 02:34:38;;;;;;;12.20;6.80;;;;;;;9.76;100.00;92915.84;2116075;27;20051;-84
2021/08/27 02:35:41;;;;;;;15.10;7.07;;;;;;;9.79;100.00;92908.94;2119606;28;20015;-85
2021/08/27 02:36:43;;;;;;;11.77;6.72;;;;;;;9.77;100.00;92917.34;2119760;27;20015;-84
2021/08/27 02:37:47;;;;;;;13.73;6.95;;;;;;;9.81;100.00;92914.59;2124719;27;20023;-84
2021/08/27 02:38:50;;;;;;;12.93;7.25;;;;;;;9.79;100.00;92916.94;2127283;27;20161;-85
2021/08/27 02:39:51;;;;;;;12.20;7.10;;;;;;;9.81;100.00;92914.59;2112910;28;20066;-85
2021/08/27 02:40:52;;;;;;;11.07;7.03;;;;;;;9.78;100.00;92907.41;2107952;27;20039;-84
2021/08/27 02:41:54;;;;;;;8.73;6.68;;;;;;;9.80;100.00;92916.50;2110793;28;20110;-84
2021/08/27 02:42:54;;;;;;;9.20;6.28;;;;;;;9.80;100.00;92921.09;2117059;28;20103;-84
2021/08/27 02:43:55;;;;;;;9.80;6.22;;;;;;;9.80;100.00;92913.09;2110914;28;20400;-84
2021/08/27 02:44:58;;;;;;;13.30;7.35;;;;;;;9.84;100.00;92911.84;2117287;28;20042;-84
2021/08/27 02:45:58;;;;;;;10.98;7.35;;;;;;;9.88;100.00;92911.00;2113024;28;20026;-85
2021/08/27 02:46:59;;;;;;;11.05;7.20;;;;;;;9.89;100.00;92910.59;2110680;28;20086;-84
2021/08/27 02:48:00;;;;;;;10.73;7.10;;;;;;;9.88;100.00;92911.78;2112951;28;20023;-85
2021/08/27 02:49:01;;;;;;;9.75;6.75;;;;;;;9.87;100.00;92909.50;2119126;27;20027;-85
2021/08/27 02:50:03;;;;;;;9.18;7.10;;;;;;;9.83;100.00;92905.00;2121402;27;20483;-83
2021/08/27 02:51:22;;;;;;;8.98;7.18;;;;;;;9.87;100.00;92912.91;2119183;28;20020;-85
2021/08/27 02:52:42;;;;;;;9.48;6.78;;;;;;;9.85;100.00;92912.59;2123363;27;20525;-84
2021/08/27 02:53:52;;;;;;;9.48;6.30;;;;;;;9.88;100.00;92911.00;2134100;27;20014;-83
2021/08/27 02:55:13;;;;;;;8.50;6.03;;;;;;;9.88;100.00;92905.66;2131156;27;20858;-86
2021/08/27 02:56:19;;;;;;;14.13;6.78;;;;;;;9.80;100.00;92905.84;2121749;27;20023;-84
2021/08/27 02:57:22;;;;;;;9.88;6.72;;;;;;;9.78;100.00;92900.16;2111508;28;20106;-84
2021/08/27 02:58:27;;;;;;;8.75;6.50;;;;;;;9.73;100.00;92902.56;2108484;27;20479;-84
2021/08/27 02:59:28;;;;;;;9.65;6.30;;;;;;;9.66;100.00;92910.72;2109371;28;20015;-85
2021/08/27 03:00:50;;;;;;;12.20;6.85;;;;;;;9.54;100.00;92907.53;2108613;28;20073;-85
2021/08/27 03:01:52;;;;;;;12.23;6.70;;;;;;;9.45;100.00;92915.34;2101403;28;20012;-84
2021/08/27 03:02:54;;;;;;;10.77;6.18;;;;;;;9.49;100.00;92912.63;2089977;28;20025;-85
2021/08/27 03:04:22;;;;;;;11.13;6.60;;;;;;;9.31;100.00;92908.41;2105882;28;20012;-83
2021/08/27 03:05:25;;;;;;;10.15;6.18;;;;;;;9.29;100.00;92913.38;2113961;27;20491;-86
2021/08/27 03:06:31;;;;;;;11.40;6.72;;;;;;;9.27;100.00;92917.63;2118101;28;20047;-84
2021/08/27 03:07:38;;;;;;;10.60;7.00;;;;;;;9.27;100.00;92912.31;2119320;28;20030;-86
2021/08/27 03:08:44;;;;;;;15.40;6.72;;;;;;;9.18;100.00;92912.09;2111457;28;20443;-84
2021/08/27 03:10:09;;;;;;;7.60;6.45;;;;;;;9.22;100.00;92913.53;2119479;27;20016;-84
2021/08/27 03:11:26;;;;;;;9.75;6.80;;;;;;;9.23;100.00;92914.28;2118157;28;20114;-85
2021/08/27 03:12:59;;;;;;;9.43;6.35;;;;;;;9.19;100.00;92917.03;2108708;28;20020;-84
2021/08/27 03:14:08;;;;;;;9.50;6.78;;;;;;;9.14;100.00;92904.19;2096708;28;20061;-84
2021/08/27 03:15:16;;;;;;;9.30;7.07;;;;;;;9.06;100.00;92902.81;2102344;28;20795;-83
2021/08/27 03:16:18;;;;;;;9.73;6.63;;;;;;;8.98;100.00;92906.78;2101108;28;20056;-84
2021/08/27 03:17:21;;;;;;;11.15;6.40;;;;;;;8.92;100.00;92909.16;2108908;28;20020;-85
2021/08/27 03:18:52;;;;;;;9.35;5.93;;;;;;;8.89;100.00;92917.22;2112502;28;20051;-84
2021/08/27 03:20:03;;;;;;;6.88;6.10;;;;;;;8.81;100.00;92906.69;2104270;28;20035;-84
2021/08/27 03:21:36;;;;;;;8.10;5.78;;;;;;;8.90;100.00;92906.16;2113699;28;20011;-84
2021/08/27 03:22:48;;;;;;;11.38;5.75;;;;;;;8.85;100.00;92901.28;2095565;28;20043;-84
2021/08/27 03:23:51;;;;;;;9.02;6.18;;;;;;;8.86;100.00;92902.78;2122075;27;20026;-84
2021/08/27 03:25:13;;;;;;;15.10;5.55;;;;;;;8.87;100.00;92904.31;2114678;28;20050;-84
2021/08/27 03:26:20;;;;;;;7.55;5.57;;;;;;;8.81;100.00;92906.69;2101105;28;20020;-84
2021/08/27 03:27:24;;;;;;;9.70;6.55;;;;;;;8.88;100.00;92902.41;2090553;28;20020;-84
2021/08/27 03:28:27;;;;;;;14.85;7.00;;;;;;;8.98;100.00;92901.44;2090940;28;20032;-84
2021/08/27 03:29:30;;;;;;;9.98;6.75;;;;;;;8.93;100.00;92899.25;2090121;28;20100;-84
2021/08/27 03:30:33;;;;;;;12.52;6.88;;;;;;;8.98;100.00;92901.44;2099465;28;20105;-84
2021/08/27 03:31:34;;;;;;;7.38;6.43;;;;;;;8.93;100.00;92900.00;2107398;28;20069;-84
2021/08/27 03:32:36;;;;;;;8.52;6.53;;;;;;;8.92;100.00;92903.09;2115571;28;20024;-83
2021/08/27 03:33:38;;;;;;;8.30;6.50;;;;;;;8.88;100.00;92903.16;2111674;28;20016;-85
2021/08/27 03:34:42;;;;;;;9.40;6.22;;;;;;;8.89;100.00;92901.97;2098788;28;20385;-84
2021/08/27 03:35:47;;;;;;;12.85;6.05;;;;;;;9.00;100.00;92896.44;2104934;28;20025;-84
2021/08/27 03:36:49;;;;;;;8.57;6.03;;;;;;;8.93;100.00;92896.59;2110958;28;20022;-84
2021/08/27 03:37:54;;;;;;;7.97;6.32;;;;;;;8.99;100.00;92886.94;2096556;28;20020;-84
2021/08/27 03:38:56;;;;;;;7.45;6.10;;;;;;;9.03;100.00;92892.97;2092657;28;20469;-84
2021/08/27 03:39:58;;;;;;;10.48;6.13;;;;;;;9.04;100.00;92889.91;2109223;28;20345;-84
2021/08/27 03:40:59;;;;;;;9.95;6.30;;;;;;;9.14;100.00;92888.19;2092510;28;20021;-84
2021/08/27 03:42:02;;;;;;;7.88;6.50;;;;;;;9.07;100.00;92897.06;2088436;28;20048;-84
2021/08/27 03:43:04;;;;;;;9.23;6.80;;;;;;;9.08;100.00;92895.88;2096984;28;20071;-84
2021/08/27 03:44:06;;;;;;;14.10;6.57;;;;;;;9.06;100.00;92898.22;2115703;27;20157;-84
2021/08/27 03:45:08;;;;;;;9.95;5.97;;;;;;;9.14;100.00;92887.44;2115218;28;20020;-84
2021/08/27 03:46:12;;;;;;;9.65;6.15;;;;;;;9.10;100.00;92892.81;2092895;28;20021;-84
2021/08/27 03:47:15;;;;;;;12.48;6.25;;;;;;;9.09;100.00;92891.31;2099341;28;20017;-85
2021/08/27 03:48:18;;;;;;;9.27;6.25;;;;;;;9.12;100.00;92892.41;2110924;28;20019;-85
2021/08/27 03:49:19;;;;;;;9.57;5.72;;;;;;;9.07;100.00;92896.31;2115886;28;20027;-84
2021/08/27 03:50:22;;;;;;;11.30;5.82;;;;;;;9.13;100.00;92893.91;2099679;28;20024;-84
2021/08/27 03:51:24;;;;;;;10.35;6.50;;;;;;;9.13;100.00;92888.56;2101474;28;20532;-85
2021/08/27 03:52:27;;;;;;;10.80;5.85;;;;;;;9.19;100.00;92890.34;2104220;28;20095;-84
2021/08/27 03:53:27;;;;;;;8.43;5.90;;;;;;;9.16;100.00;92888.50;2098865;28;20528;-84
2021/08/27 03:54:29;;;;;;;9.23;5.90;;;;;;;9.18;100.00;92894.19;2088896;28;20017;-85
2021/08/27 03:55:31;;;;;;;9.70;6.43;;;;;;;9.19;100.00;92890.34;2104435;28;20049;-84
2021/08/27 03:56:33;;;;;;;8.10;5.97;;;;;;;9.15;100.00;92891.59;2106831;28;20590;-84
2021/08/27 03:57:35;;;;;;;7.28;5.75;;;;;;;9.18;100.00;92894.19;2088627;28;20056;-84
2021/08/27 03:58:37;;;;;;;7.88;5.75;;;;;;;9.19;100.00;92893.03;2104408;28;20028;-84
2021/08/27 03:59:39;;;;;;;7.57;5.72;;;;;;;9.23;100.00;92895.63;2111588;28;20110;-85
2021/08/27 04:00:40;;;;;;;9.50;6.10;;;;;;;9.20;100.00;92894.53;2098470;28;20086;-84
2021/08/27 04:01:41;;;;;;;8.63;5.63;;;;;;;9.20;100.00;92893.78;2106771;28;20524;-84
2021/08/27 04:02:42;;;;;;;9.80;5.50;;;;;;;9.20;100.00;92896.44;2115019;28;20015;-85
2021/08/27 04:03:43;;;;;;;13.75;5.35;;;;;;;9.24;100.00;92899.78;2099196;28;20025;-85
2021/08/27 04:04:44;;;;;;;8.95;4.95;;;;;;;9.17;100.00;92898.00;2099937;28;20031;-85
2021/08/27 04:06:08;;;;;;;8.30;5.57;;;;;;;9.16;100.00;92893.84;2105545;28;20047;-85
2021/08/27 04:07:09;;;;;;;11.15;5.28;;;;;;;9.18;100.00;92901.44;2099455;28;20478;-84
2021/08/27 04:08:10;;;;;;;8.23;5.30;;;;;;;9.11;100.00;92906.91;2091871;28;20017;-84
2021/08/27 04:09:11;;;;;;;8.25;5.30;;;;;;;9.11;100.00;92905.00;2097312;28;20071;-85
2021/08/27 04:10:15;;;;;;;7.57;5.60;;;;;;;9.10;100.00;92908.06;2112038;28;20019;-85
2021/08/27 04:11:17;;;;;;;7.38;5.35;;;;;;;9.16;100.00;92903.75;2114546;28;20027;-84
2021/08/27 04:12:18;;;;;;;8.40;5.60;;;;;;;9.14;100.00;92906.09;2113037;28;20027;-84
2021/08/27 04:13:19;;;;;;;8.85;5.97;;;;;;;9.12;100.00;92908.41;2112498;28;20050;-84
2021/08/27 04:14:20;;;;;;;9.45;6.30;;;;;;;9.14;100.00;92908.75;2104700;28;20020;-84
2021/08/27 04:15:24;;;;;;;8.52;6.00;;;;;;;9.16;100.00;92904.50;2104685;28;20034;-85
2021/08/27 04:16:25;;;;;;;10.43;6.53;;;;;;;9.20;100.00;92909.78;2098688;28;20023;-85
2021/08/27 04:17:26;;;;;;;10.48;6.13;;;;;;;9.20;100.00;92905.19;2098349;28;20066;-84
2021/08/27 04:18:27;;;;;;;8.55;6.13;;;;;;;9.19;100.00;92911.69;2098356;28;20048;-85
2021/08/27 04:19:28;;;;;;;7.18;6.20;;;;;;;9.12;100.00;92903.81;2098292;28;20021;-84
2021/08/27 04:20:29;;;;;;;8.05;6.13;;;;;;;9.11;100.00;92917.56;2096413;28;20051;-84
2021/08/27 04:21:30;;;;;;;9.00;6.00;;;;;;;9.13;100.00;92909.91;2114974;28;20027;-84
2021/08/27 04:22:31;;;;;;;9.07;5.90;;;;;;;9.10;100.00;92914.16;2113394;28;20077;-85
2021/08/27 04:23:32;;;;;;;13.38;6.20;;;;;;;9.14;100.00;92914.09;2098077;28;20031;-85
2021/08/27 04:24:33;;;;;;;11.30;5.53;;;;;;;9.16;100.00;92914.41;2090196;28;20831;-84
2021/08/27 04:25:34;;;;;;;7.13;5.05;;;;;;;9.14;100.00;92912.19;2096237;28;20023;-84
2021/08/27 04:26:35;;;;;;;9.23;5.55;;;;;;;9.14;100.00;92911.44;2094466;28;20027;-85
2021/08/27 04:27:36;;;;;;;7.15;5.60;;;;;;;9.14;100.00;92916.75;2100146;28;20115;-84
2021/08/27 04:28:36;;;;;;;9.13;5.75;;;;;;;9.16;100.00;92922.41;2106565;28;20024;-85
2021/08/27 04:29:37;;;;;;;7.28;5.43;;;;;;;9.21;100.00;92909.34;2112621;28;20027;-84
2021/08/27 04:30:39;;;;;;;9.10;5.63;;;;;;;9.16;100.00;92911.75;2110082;28;20016;-85
2021/08/27 04:31:40;;;;;;;6.97;5.05;;;;;;;9.19;100.00;92921.59;2113931;27;20024;-83
2021/08/27 04:32:41;;;;;;;6.07;5.20;;;;;;;9.19;100.00;92922.34;2108791;28;20409;-85
2021/08/27 04:33:42;;;;;;;6.88;5.18;;;;;;;9.18;100.00;92918.19;2115119;28;20035;-84
2021/08/27 04:34:43;;;;;;;8.10;4.95;;;;;;;9.21;100.00;92919.28;2115021;28;20020;-84
2021/08/27 04:35:44;;;;;;;8.75;5.30;;;;;;;9.19;100.00;92917.03;2102137;28;20063;-85
2021/08/27 04:36:44;;;;;;;6.95;5.03;;;;;;;9.17;100.00;92915.91;2098553;28;20024;-84
2021/08/27 04:37:45;;;;;;;7.88;5.32;;;;;;;9.19;100.00;92921.59;2106389;28;20027;-85
2021/08/27 04:38:46;;;;;;;8.50;5.38;;;;;;;9.19;100.00;92930.34;2106132;28;20023;-85
2021/08/27 04:39:47;;;;;;;7.22;4.90;;;;;;;9.20;100.00;92928.44;2110601;28;20023;-84
2021/08/27 04:40:48;;;;;;;8.10;5.40;;;;;;;9.24;100.00;92926.47;2112960;28;20030;-84
2021/08/27 04:41:49;;;;;;;7.03;5.07;;;;;;;9.25;100.00;92931.38;2095986;28;20094;-85
2021/08/27 04:42:50;;;;;;;5.70;4.88;;;;;;;9.28;100.00;92929.81;2096373;28;20017;-84
2021/08/27 04:43:51;;;;;;;9.15;5.38;;;;;;;9.29;100.00;92924.06;2098250;28;20059;-84
2021/08/27 04:44:52;;;;;;;7.97;5.60;;;;;;;9.28;100.00;92927.13;2099826;28;20024;-84
2021/08/27 04:45:53;;;;;;;9.13;5.25;;;;;;;9.27;100.00;92929.06;2114809;28;20020;-85
2021/08/27 04:46:54;;;;;;;6.47;5.25;;;;;;;9.31;100.00;92921.75;2106383;28;20048;-83
2021/08/27 04:47:55;;;;;;;9.10;5.63;;;;;;;9.31;100.00;92927.06;2098515;28;20020;-85
2021/08/27 04:48:56;;;;;;;7.55;5.20;;;;;;;9.34;100.00;92931.56;2102310;28;20035;-85
2021/08/27 04:49:57;;;;;;;7.38;4.82;;;;;;;9.36;100.00;92933.09;2087584;28;20013;-85
2021/08/27 04:50:57;;;;;;;7.90;5.32;;;;;;;9.38;100.00;92928.84;2089786;28;20017;-85
2021/08/27 04:51:58;;;;;;;10.07;6.25;;;;;;;9.40;100.00;92926.53;2106546;28;20093;-84
2021/08/27 04:52:59;;;;;;;6.07;4.60;;;;;;;9.41;100.00;92930.69;2108425;28;20016;-86
2021/08/27 04:54:00;;;;;;;7.43;5.38;;;;;;;9.40;100.00;92931.84;2089914;28;20076;-85
2021/08/27 04:55:01;;;;;;;8.20;5.38;;;;;;;9.40;100.00;92926.53;2106796;28;20054;-83
2021/08/27 04:56:02;;;;;;;9.07;5.40;;;;;;;9.42;100.00;92926.09;2107468;28;20028;-85
2021/08/27 04:57:03;;;;;;;6.90;5.22;;;;;;;9.42;100.00;92926.84;2098076;28;20485;-84
2021/08/27 04:58:04;;;;;;;7.68;4.63;;;;;;;9.47;100.00;92929.03;2098114;28;20024;-84
2021/08/27 04:59:05;;;;;;;13.20;5.68;;;;;;;9.41;100.00;92937.94;2097957;28;20713;-84
2021/08/27 05:00:08;;;;;;;8.38;4.97;;;;;;;9.39;100.00;92926.91;2089897;28;20037;-85
2021/08/27 05:01:10;;;;;;;6.07;5.40;;;;;;;9.44;100.00;92935.19;2090364;28;20111;-85
2021/08/27 05:02:11;;;;;;;10.05;5.57;;;;;;;9.48;100.00;92933.22;2090112;28;20054;-84